sensor_id;sensor_type;location;lat;lon;timestamp;pressure;altitude;pressure_sealevel;temperature;humidity
53522;BME280;39398;48.382;9.802;2023-02-23T00:04:02;93437.84;;;8.71;98.69
53522;BME280;39398;48.382;9.802;2023-02-23T00:09:06;93432.34;;;8.66;97.51
53522;BME280;39398;48.382;9.802;2023-02-23T00:14:07;93441.75;;;8.53;98.61
53522;BME280;39398;48.382;9.802;2023-02-23T00:19:10;93438.13;;;8.54;97.64
53522;BME280;39398;48.382;9.802;2023-02-23T00:24:13;93441.94;;;8.52;97.39
53522;BME280;39398;48.382;9.802;2023-02-23T00:29:16;93444.13;;;8.48;98.38
53522;BME280;39398;48.382;9.802;2023-02-23T00:34:19;93447.53;;;8.42;98.13
53522;BME280;39398;48.382;9.802;2023-02-23T00:39:23;93445.09;;;8.41;99.44
53522;BME280;39398;48.382;9.802;2023-02-23T00:44:24;93444.09;;;8.42;99.33
53522;BME280;39398;48.382;9.802;2023-02-23T00:49:26;93442.09;;;8.44;99.37
53522;BME280;39398;48.382;9.802;2023-02-23T00:54:28;93433.56;;;8.42;99.87
53522;BME280;39398;48.382;9.802;2023-02-23T00:59:30;93431.94;;;8.41;100.00
53522;BME280;39398;48.382;9.802;2023-02-23T01:04:31;93434.13;;;8.37;100.00
53522;BME280;39398;48.382;9.802;2023-02-23T01:09:34;93431.94;;;8.41;100.00
53522;BME280;39398;48.382;9.802;2023-02-23T01:14:36;93433.00;;;8.46;100.00
53522;BME280;39398;48.382;9.802;2023-02-23T01:19:37;93430.22;;;8.54;100.00
53522;BME280;39398;48.382;9.802;2023-02-23T01:24:40;93428.41;;;8.55;100.00
53522;BME280;39398;48.382;9.802;2023-02-23T01:29:42;93430.88;;;8.56;100.00
53522;BME280;39398;48.382;9.802;2023-02-23T01:34:44;93429.84;;;8.57;100.00
53522;BME280;39398;48.382;9.802;2023-02-23T01:39:47;93418.00;;;8.68;100.00
53522;BME280;39398;48.382;9.802;2023-02-23T01:45:31;93420.25;;;8.71;99.92
53522;BME280;39398;48.382;9.802;2023-02-23T01:50:39;93417.53;;;8.65;100.00
53522;BME280;39398;48.382;9.802;2023-02-23T01:55:45;93412.53;;;8.70;100.00
53522;BME280;39398;48.382;9.802;2023-02-23T02:00:48;93415.53;;;8.67;100.00
53522;BME280;39398;48.382;9.802;2023-02-23T02:05:50;93406.59;;;8.61;100.00
53522;BME280;39398;48.382;9.802;2023-02-23T02:10:54;93413.97;;;8.72;100.00
53522;BME280;39398;48.382;9.802;2023-02-23T02:16:13;93408.28;;;8.41;100.00
53522;BME280;39398;48.382;9.802;2023-02-23T02:21:46;93410.25;;;8.60;100.00
53522;BME280;39398;48.382;9.802;2023-02-23T02:27:06;93398.06;;;8.52;100.00
53522;BME280;39398;48.382;9.802;2023-02-23T02:32:35;93398.81;;;8.46;100.00
53522;BME280;39398;48.382;9.802;2023-02-23T02:37:47;93405.09;;;8.24;100.00
53522;BME280;39398;48.382;9.802;2023-02-23T02:43:00;93396.94;;;8.19;100.00
53522;BME280;39398;48.382;9.802;2023-02-23T02:48:05;93396.44;;;8.30;100.00
53522;BME280;39398;48.382;9.802;2023-02-23T02:53:15;93399.63;;;8.25;100.00
53522;BME280;39398;48.382;9.802;2023-02-23T02:58:18;93394.75;;;8.22;100.00
53522;BME280;39398;48.382;9.802;2023-02-23T03:03:28;93398.44;;;8.28;100.00
53522;BME280;39398;48.382;9.802;2023-02-23T03:08:36;93390.25;;;8.16;100.00
53522;BME280;39398;48.382;9.802;2023-02-23T03:13:49;93402.72;;;8.07;100.00
53522;BME280;39398;48.382;9.802;2023-02-23T03:19:05;93400.69;;;8.09;100.00
53522;BME280;39398;48.382;9.802;2023-02-23T03:24:17;93401.84;;;8.00;100.00
53522;BME280;39398;48.382;9.802;2023-02-23T03:29:30;93403.91;;;8.05;100.00
53522;BME280;39398;48.382;9.802;2023-02-23T03:34:36;93403.28;;;8.03;100.00
53522;BME280;39398;48.382;9.802;2023-02-23T03:39:46;93404.50;;;8.07;100.00
53522;BME280;39398;48.382;9.802;2023-02-23T03:44:52;93400.47;;;8.04;100.00
53522;BME280;39398;48.382;9.802;2023-02-23T03:49:55;93400.59;;;7.96;100.00
53522;BME280;39398;48.382;9.802;2023-02-23T03:55:02;93397.97;;;7.96;100.00
53522;BME280;39398;48.382;9.802;2023-02-23T04:00:08;93405.72;;;7.83;100.00
53522;BME280;39398;48.382;9.802;2023-02-23T04:05:15;93404.09;;;7.60;100.00
53522;BME280;39398;48.382;9.802;2023-02-23T04:10:20;93401.34;;;7.90;100.00
53522;BME280;39398;48.382;9.802;2023-02-23T04:15:26;93408.31;;;7.98;100.00
53522;BME280;39398;48.382;9.802;2023-02-23T04:20:30;93409.22;;;7.90;100.00
53522;BME280;39398;48.382;9.802;2023-02-23T04:25:34;93413.84;;;7.88;100.00
53522;BME280;39398;48.382;9.802;2023-02-23T04:30:35;93419.25;;;7.80;100.00
53522;BME280;39398;48.382;9.802;2023-02-23T04:35:37;93409.63;;;7.72;100.00
53522;BME280;39398;48.382;9.802;2023-02-23T04:40:40;93412.91;;;7.74;100.00
53522;BME280;39398;48.382;9.802;2023-02-23T04:45:42;93410.72;;;7.78;100.00
53522;BME280;39398;48.382;9.802;2023-02-23T04:50:44;93411.53;;;7.78;100.00
53522;BME280;39398;48.382;9.802;2023-02-23T04:55:47;93414.22;;;7.63;100.00
53522;BME280;39398;48.382;9.802;2023-02-23T05:00:48;93419.16;;;7.73;100.00
53522;BME280;39398;48.382;9.802;2023-02-23T05:05:50;93413.78;;;7.81;100.00
53522;BME280;39398;48.382;9.802;2023-02-23T05:10:53;93414.34;;;7.77;100.00
53522;BME280;39398;48.382;9.802;2023-02-23T05:15:56;93405.22;;;7.94;100.00
53522;BME280;39398;48.382;9.802;2023-02-23T05:21:01;93406.78;;;7.88;100.00
53522;BME280;39398;48.382;9.802;2023-02-23T05:26:07;93410.03;;;7.90;100.00
53522;BME280;39398;48.382;9.802;2023-02-23T05:31:11;93414.53;;;7.97;100.00
53522;BME280;39398;48.382;9.802;2023-02-23T05:36:16;93412.44;;;7.85;100.00
53522;BME280;39398;48.382;9.802;2023-02-23T05:41:20;93416.47;;;7.88;100.00
53522;BME280;39398;48.382;9.802;2023-02-23T05:46:24;93411.53;;;7.78;100.00
53522;BME280;39398;48.382;9.802;2023-02-23T05:51:27;93409.22;;;7.90;100.00
53522;BME280;39398;48.382;9.802;2023-02-23T05:56:30;93414.25;;;7.85;100.00
53522;BME280;39398;48.382;9.802;2023-02-23T06:01:32;93413.34;;;7.78;100.00
53522;BME280;39398;48.382;9.802;2023-02-23T06:06:34;93415.97;;;7.78;100.00
53522;BME280;39398;48.382;9.802;2023-02-23T06:11:37;93413.72;;;7.75;100.00
53522;BME280;39398;48.382;9.802;2023-02-23T06:16:38;93419.34;;;7.72;100.00
53522;BME280;39398;48.382;9.802;2023-02-23T06:21:40;93422.03;;;7.57;100.00
53522;BME280;39398;48.382;9.802;2023-02-23T06:26:43;93431.22;;;7.67;100.00
53522;BME280;39398;48.382;9.802;2023-02-23T06:31:45;93429.53;;;7.81;100.00
53522;BME280;39398;48.382;9.802;2023-02-23T06:36:46;93443.06;;;7.78;100.00
53522;BME280;39398;48.382;9.802;2023-02-23T06:41:49;93442.69;;;7.81;100.00
53522;BME280;39398;48.382;9.802;2023-02-23T06:46:51;93450.63;;;7.66;100.00
53522;BME280;39398;48.382;9.802;2023-02-23T06:51:52;93451.81;;;7.64;100.00
53522;BME280;39398;48.382;9.802;2023-02-23T06:56:55;93459.69;;;7.64;100.00
53522;BME280;39398;48.382;9.802;2023-02-23T07:01:57;93461.38;;;7.72;100.00
53522;BME280;39398;48.382;9.802;2023-02-23T07:06:59;93461.22;;;7.73;100.00
53522;BME280;39398;48.382;9.802;2023-02-23T07:12:02;93465.22;;;7.90;100.00
53522;BME280;39398;48.382;9.802;2023-02-23T07:17:04;93468.56;;;7.99;100.00
53522;BME280;39398;48.382;9.802;2023-02-23T07:22:05;93466.88;;;7.91;100.00
53522;BME280;39398;48.382;9.802;2023-02-23T07:27:08;93470.47;;;7.90;100.00
53522;BME280;39398;48.382;9.802;2023-02-23T07:32:10;93476.81;;;7.96;100.00
53522;BME280;39398;48.382;9.802;2023-02-23T07:37:11;93469.44;;;8.06;100.00
53522;BME280;39398;48.382;9.802;2023-02-23T07:42:14;93472.31;;;8.11;100.00
53522;BME280;39398;48.382;9.802;2023-02-23T07:47:16;93476.50;;;8.06;100.00
53522;BME280;39398;48.382;9.802;2023-02-23T07:52:17;93481.75;;;8.06;100.00
53522;BME280;39398;48.382;9.802;2023-02-23T07:57:20;93479.78;;;8.08;100.00
53522;BME280;39398;48.382;9.802;2023-02-23T08:02:25;93488.72;;;8.13;100.00
53522;BME280;39398;48.382;9.802;2023-02-23T08:07:27;93491.22;;;8.22;100.00
53522;BME280;39398;48.382;9.802;2023-02-23T08:12:30;93493.28;;;8.26;100.00
53522;BME280;39398;48.382;9.802;2023-02-23T08:17:32;93483.03;;;8.31;100.00
53522;BME280;39398;48.382;9.802;2023-02-23T08:22:33;93490.06;;;8.46;100.00
53522;BME280;39398;48.382;9.802;2023-02-23T08:27:50;93486.50;;;8.53;100.00
53522;BME280;39398;48.382;9.802;2023-02-23T08:32:52;93486.91;;;8.57;100.00
53522;BME280;39398;48.382;9.802;2023-02-23T08:37:53;93496.94;;;8.68;100.00
53522;BME280;39398;48.382;9.802;2023-02-23T08:42:56;93489.31;;;8.80;100.00
53522;BME280;39398;48.382;9.802;2023-02-23T08:47:57;93494.22;;;8.83;100.00
53522;BME280;39398;48.382;9.802;2023-02-23T08:52:59;93493.09;;;8.71;100.00
53522;BME280;39398;48.382;9.802;2023-02-23T08:58:02;93494.97;;;8.77;100.00
53522;BME280;39398;48.382;9.802;2023-02-23T09:03:04;93498.91;;;8.88;100.00
53522;BME280;39398;48.382;9.802;2023-02-23T09:08:06;93501.88;;;8.78;100.00
53522;BME280;39398;48.382;9.802;2023-02-23T09:13:10;93496.31;;;8.94;100.00
53522;BME280;39398;48.382;9.802;2023-02-23T09:18:12;93497.69;;;8.90;100.00
53522;BME280;39398;48.382;9.802;2023-02-23T09:23:14;93501.59;;;9.22;100.00
53522;BME280;39398;48.382;9.802;2023-02-23T09:28:18;93502.75;;;9.13;100.00
53522;BME280;39398;48.382;9.802;2023-02-23T09:33:20;93498.28;;;9.48;100.00
53522;BME280;39398;48.382;9.802;2023-02-23T09:38:22;93492.28;;;9.68;100.00
53522;BME280;39398;48.382;9.802;2023-02-23T09:43:29;93502.31;;;9.92;100.00
53522;BME280;39398;48.382;9.802;2023-02-23T09:48:33;93497.56;;;9.68;100.00
53522;BME280;39398;48.382;9.802;2023-02-23T09:53:38;93504.09;;;9.78;100.00
53522;BME280;39398;48.382;9.802;2023-02-23T09:58:42;93503.19;;;10.06;100.00
53522;BME280;39398;48.382;9.802;2023-02-23T10:03:49;93507.34;;;10.42;100.00
53522;BME280;39398;48.382;9.802;2023-02-23T10:09:03;93495.19;;;10.54;100.00
53522;BME280;39398;48.382;9.802;2023-02-23T10:14:18;93502.94;;;10.76;100.00
53522;BME280;39398;48.382;9.802;2023-02-23T10:19:29;93491.97;;;10.72;100.00
53522;BME280;39398;48.382;9.802;2023-02-23T10:24:35;93497.31;;;10.24;100.00
53522;BME280;39398;48.382;9.802;2023-02-23T10:29:41;93499.47;;;9.87;100.00
53522;BME280;39398;48.382;9.802;2023-02-23T10:34:47;93499.84;;;10.65;100.00
53522;BME280;39398;48.382;9.802;2023-02-23T10:39:50;93499.47;;;10.82;100.00
53522;BME280;39398;48.382;9.802;2023-02-23T10:44:55;93501.03;;;10.43;100.00
53522;BME280;39398;48.382;9.802;2023-02-23T10:49:57;93495.63;;;10.98;100.00
53522;BME280;39398;48.382;9.802;2023-02-23T10:54:59;93492.13;;;11.17;100.00
53522;BME280;39398;48.382;9.802;2023-02-23T11:00:24;93486.44;;;11.13;100.00
53522;BME280;39398;48.382;9.802;2023-02-23T11:05:32;93485.84;;;11.05;100.00
53522;BME280;39398;48.382;9.802;2023-02-23T11:10:34;93488.59;;;11.56;100.00
53522;BME280;39398;48.382;9.802;2023-02-23T11:15:37;93485.19;;;11.43;100.00
53522;BME280;39398;48.382;9.802;2023-02-23T11:20:51;93482.00;;;11.85;100.00
53522;BME280;39398;48.382;9.802;2023-02-23T11:25:55;93477.59;;;11.59;100.00
53522;BME280;39398;48.382;9.802;2023-02-23T11:31:01;93482.19;;;11.84;100.00
53522;BME280;39398;48.382;9.802;2023-02-23T11:36:16;93470.56;;;11.33;100.00
53522;BME280;39398;48.382;9.802;2023-02-23T11:41:20;93464.16;;;11.61;100.00
53522;BME280;39398;48.382;9.802;2023-02-23T11:46:25;93461.16;;;11.44;100.00
53522;BME280;39398;48.382;9.802;2023-02-23T11:51:29;93458.25;;;11.66;100.00
53522;BME280;39398;48.382;9.802;2023-02-23T11:56:33;93451.25;;;11.39;100.00
53522;BME280;39398;48.382;9.802;2023-02-23T12:01:42;93454.78;;;12.17;100.00
53522;BME280;39398;48.382;9.802;2023-02-23T12:06:44;93441.69;;;11.83;99.25
53522;BME280;39398;48.382;9.802;2023-02-23T12:11:50;93444.22;;;12.17;97.62
53522;BME280;39398;48.382;9.802;2023-02-23T12:16:59;93434.38;;;12.24;92.92
53522;BME280;39398;48.382;9.802;2023-02-23T12:22:06;93429.47;;;12.27;92.58
53522;BME280;39398;48.382;9.802;2023-02-23T12:27:15;93426.50;;;11.72;97.87
53522;BME280;39398;48.382;9.802;2023-02-23T12:32:21;93429.72;;;11.81;93.90
53522;BME280;39398;48.382;9.802;2023-02-23T12:37:32;93422.47;;;12.08;91.53
53522;BME280;39398;48.382;9.802;2023-02-23T12:42:39;93418.59;;;12.10;93.81
53522;BME280;39398;48.382;9.802;2023-02-23T12:47:49;93416.66;;;11.41;100.00
53522;BME280;39398;48.382;9.802;2023-02-23T12:52:54;93412.31;;;11.60;100.00
53522;BME280;39398;48.382;9.802;2023-02-23T12:58:01;93410.84;;;11.77;98.73
53522;BME280;39398;48.382;9.802;2023-02-23T13:03:29;93396.16;;;12.20;96.64
53522;BME280;39398;48.382;9.802;2023-02-23T13:08:50;93400.94;;;12.36;94.63
53522;BME280;39398;48.382;9.802;2023-02-23T13:13:58;93393.88;;;12.23;96.90
53522;BME280;39398;48.382;9.802;2023-02-23T13:19:09;93394.31;;;12.20;94.90
53522;BME280;39398;48.382;9.802;2023-02-23T13:24:17;93397.63;;;12.16;94.05
53522;BME280;39398;48.382;9.802;2023-02-23T13:29:27;93397.56;;;11.84;93.53
53522;BME280;39398;48.382;9.802;2023-02-23T13:34:33;93382.00;;;12.07;91.21
53522;BME280;39398;48.382;9.802;2023-02-23T13:40:02;93391.06;;;11.86;93.03
53522;BME280;39398;48.382;9.802;2023-02-23T13:45:23;93386.91;;;12.04;91.12
53522;BME280;39398;48.382;9.802;2023-02-23T13:50:30;93385.91;;;11.98;90.48
53522;BME280;39398;48.382;9.802;2023-02-23T13:55:47;93387.00;;;11.84;92.01
53522;BME280;39398;48.382;9.802;2023-02-23T14:00:53;93390.53;;;11.64;92.85
53522;BME280;39398;48.382;9.802;2023-02-23T14:06:04;93398.41;;;11.84;91.79
53522;BME280;39398;48.382;9.802;2023-02-23T14:11:07;93393.06;;;11.91;95.09
53522;BME280;39398;48.382;9.802;2023-02-23T14:16:14;93397.22;;;11.67;97.47
53522;BME280;39398;48.382;9.802;2023-02-23T14:21:26;93396.97;;;11.37;95.65
53522;BME280;39398;48.382;9.802;2023-02-23T14:26:41;93409.59;;;9.82;100.00
53522;BME280;39398;48.382;9.802;2023-02-23T14:31:53;93412.16;;;8.73;100.00
53522;BME280;39398;48.382;9.802;2023-02-23T14:36:56;93411.69;;;8.63;95.04
53522;BME280;39398;48.382;9.802;2023-02-23T14:42:05;93413.88;;;8.87;100.00
53522;BME280;39398;48.382;9.802;2023-02-23T14:47:11;93412.53;;;8.70;100.00
53522;BME280;39398;48.382;9.802;2023-02-23T14:52:19;93409.00;;;8.84;100.00
53522;BME280;39398;48.382;9.802;2023-02-23T14:57:23;93400.59;;;9.57;100.00
53522;BME280;39398;48.382;9.802;2023-02-23T15:02:27;93396.13;;;9.50;100.00
53522;BME280;39398;48.382;9.802;2023-02-23T15:07:33;93397.03;;;9.91;100.00
53522;BME280;39398;48.382;9.802;2023-02-23T15:12:37;93392.41;;;9.99;100.00
53522;BME280;39398;48.382;9.802;2023-02-23T15:17:41;93401.31;;;9.30;100.00
53522;BME280;39398;48.382;9.802;2023-02-23T15:22:46;93403.78;;;9.32;100.00
53522;BME280;39398;48.382;9.802;2023-02-23T15:27:49;93417.03;;;9.59;100.00
53522;BME280;39398;48.382;9.802;2023-02-23T15:32:59;93418.75;;;9.80;100.00
53522;BME280;39398;48.382;9.802;2023-02-23T15:38:06;93418.94;;;9.91;100.00
53522;BME280;39398;48.382;9.802;2023-02-23T15:43:25;93416.69;;;9.82;100.00
53522;BME280;39398;48.382;9.802;2023-02-23T15:48:38;93424.00;;;9.80;100.00
53522;BME280;39398;48.382;9.802;2023-02-23T15:53:42;93433.38;;;9.41;100.00
53522;BME280;39398;48.382;9.802;2023-02-23T15:58:48;93426.84;;;9.85;100.00
53522;BME280;39398;48.382;9.802;2023-02-23T16:04:00;93425.19;;;9.70;100.00
53522;BME280;39398;48.382;9.802;2023-02-23T16:09:13;93413.84;;;9.76;100.00
53522;BME280;39398;48.382;9.802;2023-02-23T16:14:16;93413.47;;;9.80;100.00
53522;BME280;39398;48.382;9.802;2023-02-23T16:19:19;93412.63;;;9.86;100.00
53522;BME280;39398;48.382;9.802;2023-02-23T16:24:25;93400.19;;;9.53;100.00
53522;BME280;39398;48.382;9.802;2023-02-23T16:29:32;93402.94;;;9.93;100.00
53522;BME280;39398;48.382;9.802;2023-02-23T16:34:43;93395.81;;;9.80;100.00
53522;BME280;39398;48.382;9.802;2023-02-23T16:39:46;93409.81;;;7.49;100.00
53522;BME280;39398;48.382;9.802;2023-02-23T16:44:48;93415.91;;;7.35;100.00
53522;BME280;39398;48.382;9.802;2023-02-23T16:49:50;93412.69;;;7.54;100.00
53522;BME280;39398;48.382;9.802;2023-02-23T16:54:53;93415.56;;;7.59;100.00
53522;BME280;39398;48.382;9.802;2023-02-23T16:59:56;93418.19;;;7.38;100.00
53522;BME280;39398;48.382;9.802;2023-02-23T17:04:58;93414.91;;;7.93;100.00
53522;BME280;39398;48.382;9.802;2023-02-23T17:10:01;93418.84;;;7.10;100.00
53522;BME280;39398;48.382;9.802;2023-02-23T17:15:03;93426.63;;;7.18;100.00
53522;BME280;39398;48.382;9.802;2023-02-23T17:20:06;93420.44;;;7.41;100.00
53522;BME280;39398;48.382;9.802;2023-02-23T17:25:09;93415.25;;;8.05;100.00
53522;BME280;39398;48.382;9.802;2023-02-23T17:30:12;93422.84;;;7.57;100.00
53522;BME280;39398;48.382;9.802;2023-02-23T17:35:14;93427.06;;;7.95;100.00
53522;BME280;39398;48.382;9.802;2023-02-23T17:40:19;93420.75;;;7.89;100.00
53522;BME280;39398;48.382;9.802;2023-02-23T17:45:21;93428.94;;;8.01;100.00
53522;BME280;39398;48.382;9.802;2023-02-23T17:50:23;93424.91;;;8.26;100.00
53522;BME280;39398;48.382;9.802;2023-02-23T17:55:26;93425.25;;;8.38;100.00
53522;BME280;39398;48.382;9.802;2023-02-23T18:00:28;93431.56;;;8.44;100.00
53522;BME280;39398;48.382;9.802;2023-02-23T18:05:30;93423.94;;;8.83;100.00
53522;BME280;39398;48.382;9.802;2023-02-23T18:10:33;93423.09;;;9.11;100.00
53522;BME280;39398;48.382;9.802;2023-02-23T18:15:34;93426.94;;;9.08;100.00
53522;BME280;39398;48.382;9.802;2023-02-23T18:20:36;93435.16;;;8.92;100.00
53522;BME280;39398;48.382;9.802;2023-02-23T18:25:39;93442.00;;;8.87;100.00
53522;BME280;39398;48.382;9.802;2023-02-23T18:30:41;93437.34;;;8.89;100.00
53522;BME280;39398;48.382;9.802;2023-02-23T18:35:43;93441.09;;;8.73;100.00
53522;BME280;39398;48.382;9.802;2023-02-23T18:40:46;93451.09;;;8.56;100.00
53522;BME280;39398;48.382;9.802;2023-02-23T18:45:48;93460.59;;;8.35;100.00
53522;BME280;39398;48.382;9.802;2023-02-23T18:50:54;93463.91;;;8.23;100.00
53522;BME280;39398;48.382;9.802;2023-02-23T18:56:02;93458.72;;;8.29;100.00
53522;BME280;39398;48.382;9.802;2023-02-23T19:01:09;93469.50;;;7.91;100.00
53522;BME280;39398;48.382;9.802;2023-02-23T19:06:11;93459.19;;;8.33;100.00
53522;BME280;39398;48.382;9.802;2023-02-23T19:11:14;93455.66;;;8.69;100.00
53522;BME280;39398;48.382;9.802;2023-02-23T19:16:16;93441.81;;;8.60;100.00
53522;BME280;39398;48.382;9.802;2023-02-23T19:21:18;93432.06;;;8.82;100.00
53522;BME280;39398;48.382;9.802;2023-02-23T19:26:23;93418.25;;;8.80;100.00
53522;BME280;39398;48.382;9.802;2023-02-23T19:31:25;93428.75;;;7.81;100.00
53522;BME280;39398;48.382;9.802;2023-02-23T19:36:27;93436.66;;;7.30;100.00
53522;BME280;39398;48.382;9.802;2023-02-23T19:41:31;93433.19;;;7.44;100.00
53522;BME280;39398;48.382;9.802;2023-02-23T19:46:34;93437.47;;;7.30;100.00
53522;BME280;39398;48.382;9.802;2023-02-23T19:51:35;93437.06;;;7.63;100.00
53522;BME280;39398;48.382;9.802;2023-02-23T19:56:38;93433.50;;;7.71;100.00
53522;BME280;39398;48.382;9.802;2023-02-23T20:01:40;93440.16;;;7.37;100.00
53522;BME280;39398;48.382;9.802;2023-02-23T20:06:43;93438.91;;;7.48;100.00
53522;BME280;39398;48.382;9.802;2023-02-23T20:11:46;93436.00;;;8.00;100.00
53522;BME280;39398;48.382;9.802;2023-02-23T20:16:47;93430.94;;;8.20;100.00
53522;BME280;39398;48.382;9.802;2023-02-23T20:21:49;93429.03;;;8.57;100.00
53522;BME280;39398;48.382;9.802;2023-02-23T20:26:52;93423.22;;;8.61;100.00
53522;BME280;39398;48.382;9.802;2023-02-23T20:31:55;93421.28;;;8.77;100.00
53522;BME280;39398;48.382;9.802;2023-02-23T20:36:57;93419.66;;;8.48;100.00
53522;BME280;39398;48.382;9.802;2023-02-23T20:42:00;93410.78;;;8.83;100.00
53522;BME280;39398;48.382;9.802;2023-02-23T20:47:01;93410.66;;;8.64;100.00
53522;BME280;39398;48.382;9.802;2023-02-23T20:52:03;93414.34;;;8.69;100.00
53522;BME280;39398;48.382;9.802;2023-02-23T20:57:06;93415.63;;;8.80;100.00
53522;BME280;39398;48.382;9.802;2023-02-23T21:02:09;93412.72;;;8.40;100.00
53522;BME280;39398;48.382;9.802;2023-02-23T21:07:11;93420.13;;;8.30;100.00
53522;BME280;39398;48.382;9.802;2023-02-23T21:12:14;93415.16;;;8.70;100.00
53522;BME280;39398;48.382;9.802;2023-02-23T21:17:17;93405.66;;;8.69;100.00
53522;BME280;39398;48.382;9.802;2023-02-23T21:22:19;93406.19;;;8.92;100.00
53522;BME280;39398;48.382;9.802;2023-02-23T21:27:22;93401.69;;;8.86;100.00
53522;BME280;39398;48.382;9.802;2023-02-23T21:32:24;93395.88;;;8.91;100.00
53522;BME280;39398;48.382;9.802;2023-02-23T21:37:25;93398.88;;;8.88;100.00
53522;BME280;39398;48.382;9.802;2023-02-23T21:42:28;93398.34;;;8.71;100.00
53522;BME280;39398;48.382;9.802;2023-02-23T21:47:32;93397.97;;;8.74;100.00
53522;BME280;39398;48.382;9.802;2023-02-23T21:52:34;93391.31;;;8.43;100.00
53522;BME280;39398;48.382;9.802;2023-02-23T21:57:37;93387.41;;;8.39;100.00
53522;BME280;39398;48.382;9.802;2023-02-23T22:02:39;93385.78;;;8.16;100.00
53522;BME280;39398;48.382;9.802;2023-02-23T22:07:40;93386.03;;;8.22;100.00
53522;BME280;39398;48.382;9.802;2023-02-23T22:12:49;93389.31;;;8.24;100.00
53522;BME280;39398;48.382;9.802;2023-02-23T22:17:51;93383.25;;;8.23;100.00
53522;BME280;39398;48.382;9.802;2023-02-23T22:22:53;93382.84;;;8.26;100.00
53522;BME280;39398;48.382;9.802;2023-02-23T22:27:56;93379.41;;;8.26;100.00
53522;BME280;39398;48.382;9.802;2023-02-23T22:32:57;93376.81;;;8.32;100.00
53522;BME280;39398;48.382;9.802;2023-02-23T22:37:59;93373.19;;;8.33;100.00
53522;BME280;39398;48.382;9.802;2023-02-23T22:43:02;93365.09;;;8.07;100.00
53522;BME280;39398;48.382;9.802;2023-02-23T22:48:04;93370.56;;;8.33;100.00
53522;BME280;39398;48.382;9.802;2023-02-23T22:53:05;93367.94;;;8.33;100.00
53522;BME280;39398;48.382;9.802;2023-02-23T22:58:08;93364.47;;;8.05;100.00
53522;BME280;39398;48.382;9.802;2023-02-23T23:03:10;93374.03;;;7.91;100.00
53522;BME280;39398;48.382;9.802;2023-02-23T23:08:11;93358.19;;;8.27;100.00
53522;BME280;39398;48.382;9.802;2023-02-23T23:13:14;93349.25;;;8.50;100.00
53522;BME280;39398;48.382;9.802;2023-02-23T23:18:16;93343.34;;;8.41;100.00
53522;BME280;39398;48.382;9.802;2023-02-23T23:23:18;93355.09;;;7.74;100.00
53522;BME280;39398;48.382;9.802;2023-02-23T23:28:20;93345.97;;;7.70;100.00
53522;BME280;39398;48.382;9.802;2023-02-23T23:33:22;93334.06;;;7.96;100.00
53522;BME280;39398;48.382;9.802;2023-02-23T23:38:24;93323.59;;;8.02;100.00
53522;BME280;39398;48.382;9.802;2023-02-23T23:43:27;93318.34;;;8.02;100.00
53522;BME280;39398;48.382;9.802;2023-02-23T23:48:28;93311.75;;;8.13;100.00
53522;BME280;39398;48.382;9.802;2023-02-23T23:53:30;93312.41;;;7.93;100.00
53522;BME280;39398;48.382;9.802;2023-02-23T23:58:34;93306.97;;;7.95;100.00
